sensor_id;sensor_type;location;lat;lon;timestamp;pressure;altitude;pressure_sealevel;temperature;humidity
39267;BME280;24967;51.154;13.812;2023-03-22T00:01:26;99234.09;;;13.54;78.12
39267;BME280;24967;51.154;13.812;2023-03-22T00:03:55;99235.31;;;13.43;79.17
39267;BME280;24967;51.154;13.812;2023-03-22T00:06:23;99229.50;;;13.39;79.34
39267;BME280;24967;51.154;13.812;2023-03-22T00:08:51;99226.56;;;13.18;80.52
39267;BME280;24967;51.154;13.812;2023-03-22T00:11:20;99232.13;;;13.08;80.94
39267;BME280;24967;51.154;13.812;2023-03-22T00:13:48;99236.84;;;13.37;80.09
39267;BME280;24967;51.154;13.812;2023-03-22T00:16:17;99219.88;;;13.22;80.53
39267;BME280;24967;51.154;13.812;2023-03-22T00:18:44;99226.78;;;13.16;81.17
39267;BME280;24967;51.154;13.812;2023-03-22T00:21:11;99227.31;;;13.03;82.75
39267;BME280;24967;51.154;13.812;2023-03-22T00:23:38;99228.84;;;12.98;83.16
39267;BME280;24967;51.154;13.812;2023-03-22T00:26:05;99221.16;;;13.03;83.03
39267;BME280;24967;51.154;13.812;2023-03-22T00:28:33;99226.22;;;12.90;83.49
39267;BME280;24967;51.154;13.812;2023-03-22T00:31:00;99222.41;;;12.84;83.90
39267;BME280;24967;51.154;13.812;2023-03-22T00:33:28;99212.88;;;12.90;83.35
39267;BME280;24967;51.154;13.812;2023-03-22T00:35:58;99206.38;;;12.92;83.37
39267;BME280;24967;51.154;13.812;2023-03-22T00:38:25;99212.47;;;13.01;82.89
39267;BME280;24967;51.154;13.812;2023-03-22T00:41:05;99197.16;;;12.95;82.69
39267;BME280;24967;51.154;13.812;2023-03-22T00:43:33;99198.38;;;12.92;83.03
39267;BME280;24967;51.154;13.812;2023-03-22T00:46:00;99196.00;;;12.97;82.90
39267;BME280;24967;51.154;13.812;2023-03-22T00:48:27;99190.75;;;12.81;83.40
39267;BME280;24967;51.154;13.812;2023-03-22T00:50:53;99189.59;;;12.75;83.99
39267;BME280;24967;51.154;13.812;2023-03-22T00:53:20;99185.97;;;12.68;84.55
39267;BME280;24967;51.154;13.812;2023-03-22T00:55:46;99184.34;;;12.59;84.66
39267;BME280;24967;51.154;13.812;2023-03-22T00:58:13;99186.13;;;12.58;84.29
39267;BME280;24967;51.154;13.812;2023-03-22T01:00:41;99178.34;;;12.88;83.69
39267;BME280;24967;51.154;13.812;2023-03-22T01:03:08;99187.81;;;12.59;84.60
39267;BME280;24967;51.154;13.812;2023-03-22T01:05:38;99188.66;;;12.60;84.32
39267;BME280;24967;51.154;13.812;2023-03-22T01:08:05;99181.22;;;12.87;83.34
39267;BME280;24967;51.154;13.812;2023-03-22T01:10:33;99173.31;;;12.62;83.57
39267;BME280;24967;51.154;13.812;2023-03-22T01:12:59;99183.53;;;12.50;83.53
39267;BME280;24967;51.154;13.812;2023-03-22T01:15:26;99182.75;;;12.81;82.48
39267;BME280;24967;51.154;13.812;2023-03-22T01:17:54;99180.50;;;12.53;83.28
39267;BME280;24967;51.154;13.812;2023-03-22T01:20:20;99178.31;;;12.57;83.19
39267;BME280;24967;51.154;13.812;2023-03-22T01:22:47;99175.47;;;12.67;82.36
39267;BME280;24967;51.154;13.812;2023-03-22T01:25:14;99179.81;;;12.59;82.49
39267;BME280;24967;51.154;13.812;2023-03-22T01:27:40;99180.31;;;12.63;81.98
39267;BME280;24967;51.154;13.812;2023-03-22T01:30:08;99179.97;;;12.58;82.14
39267;BME280;24967;51.154;13.812;2023-03-22T01:32:35;99176.69;;;12.48;82.34
39267;BME280;24967;51.154;13.812;2023-03-22T01:35:03;99154.88;;;12.44;82.09
39267;BME280;24967;51.154;13.812;2023-03-22T01:37:30;99155.97;;;12.10;83.35
39267;BME280;24967;51.154;13.812;2023-03-22T01:39:58;99172.06;;;12.25;83.03
39267;BME280;24967;51.154;13.812;2023-03-22T01:42:25;99168.91;;;12.38;82.51
39267;BME280;24967;51.154;13.812;2023-03-22T01:45:25;99163.09;;;12.34;82.80
39267;BME280;24967;51.154;13.812;2023-03-22T01:47:58;99163.09;;;12.34;82.34
39267;BME280;24967;51.154;13.812;2023-03-22T01:50:27;99161.06;;;12.36;82.10
39267;BME280;24967;51.154;13.812;2023-03-22T01:52:56;99149.66;;;11.95;82.81
39267;BME280;24967;51.154;13.812;2023-03-22T01:55:24;99152.94;;;12.22;82.40
39267;BME280;24967;51.154;13.812;2023-03-22T01:57:52;99150.28;;;12.22;81.36
39267;BME280;24967;51.154;13.812;2023-03-22T02:00:19;99141.78;;;12.18;81.05
39267;BME280;24967;51.154;13.812;2023-03-22T02:02:48;99144.50;;;11.94;81.32
39267;BME280;24967;51.154;13.812;2023-03-22T02:05:16;99140.50;;;11.81;82.24
39267;BME280;24967;51.154;13.812;2023-03-22T02:07:45;99148.19;;;11.93;81.96
39267;BME280;24967;51.154;13.812;2023-03-22T02:10:13;99145.47;;;12.01;81.95
39267;BME280;24967;51.154;13.812;2023-03-22T02:12:50;99152.16;;;12.05;80.95
39267;BME280;24967;51.154;13.812;2023-03-22T02:15:21;99149.00;;;11.93;81.45
39267;BME280;24967;51.154;13.812;2023-03-22T02:17:57;99147.31;;;11.92;81.73
39267;BME280;24967;51.154;13.812;2023-03-22T02:24:08;99144.84;;;11.58;82.82
39267;BME280;24967;51.154;13.812;2023-03-22T02:27:05;99142.34;;;11.48;83.21
39267;BME280;24967;51.154;13.812;2023-03-22T02:29:41;99134.66;;;11.61;82.31
39267;BME280;24967;51.154;13.812;2023-03-22T02:35:31;99148.31;;;11.66;81.96
39267;BME280;24967;51.154;13.812;2023-03-22T02:38:26;99141.50;;;11.39;82.78
39267;BME280;24967;51.154;13.812;2023-03-22T02:41:08;99137.34;;;11.20;83.44
39267;BME280;24967;51.154;13.812;2023-03-22T02:43:41;99140.00;;;11.37;83.04
39267;BME280;24967;51.154;13.812;2023-03-22T02:46:19;99145.16;;;11.63;81.99
39267;BME280;24967;51.154;13.812;2023-03-22T02:48:49;99141.28;;;11.16;82.66
39267;BME280;24967;51.154;13.812;2023-03-22T02:51:20;99138.13;;;11.13;83.02
39267;BME280;24967;51.154;13.812;2023-03-22T02:53:51;99130.50;;;11.02;83.54
39267;BME280;24967;51.154;13.812;2023-03-22T02:56:24;99132.50;;;11.08;83.72
39267;BME280;24967;51.154;13.812;2023-03-22T02:58:55;99129.34;;;11.12;83.54
39267;BME280;24967;51.154;13.812;2023-03-22T03:01:24;99124.47;;;10.91;83.85
39267;BME280;24967;51.154;13.812;2023-03-22T03:03:55;99129.09;;;10.81;83.95
39267;BME280;24967;51.154;13.812;2023-03-22T03:06:24;99127.31;;;10.90;83.79
39267;BME280;24967;51.154;13.812;2023-03-22T03:08:53;99127.41;;;10.80;83.58
39267;BME280;24967;51.154;13.812;2023-03-22T03:11:23;99129.28;;;10.88;83.14
39267;BME280;24967;51.154;13.812;2023-03-22T03:13:50;99127.44;;;10.88;82.95
39267;BME280;24967;51.154;13.812;2023-03-22T03:16:19;99129.09;;;10.81;82.44
39267;BME280;24967;51.154;13.812;2023-03-22T03:18:51;99128.88;;;10.66;82.93
39267;BME280;24967;51.154;13.812;2023-03-22T03:21:33;99122.44;;;10.69;82.61
39267;BME280;24967;51.154;13.812;2023-03-22T03:24:16;99122.75;;;10.66;82.34
39267;BME280;24967;51.154;13.812;2023-03-22T03:26:52;99125.78;;;10.87;81.62
39267;BME280;24967;51.154;13.812;2023-03-22T03:29:25;99121.94;;;10.73;81.26
39267;BME280;24967;51.154;13.812;2023-03-22T03:31:58;99130.09;;;10.88;80.55
39267;BME280;24967;51.154;13.812;2023-03-22T03:34:32;99133.09;;;10.85;80.11
39267;BME280;24967;51.154;13.812;2023-03-22T03:37:04;99134.75;;;10.78;80.45
39267;BME280;24967;51.154;13.812;2023-03-22T03:39:36;99129.84;;;10.57;81.26
39267;BME280;24967;51.154;13.812;2023-03-22T03:42:05;99130.53;;;10.59;81.43
39267;BME280;24967;51.154;13.812;2023-03-22T03:44:37;99134.75;;;10.36;81.97
39267;BME280;24967;51.154;13.812;2023-03-22T03:47:04;99134.94;;;10.42;82.16
39267;BME280;24967;51.154;13.812;2023-03-22T03:49:32;99138.78;;;10.22;82.66
39267;BME280;24967;51.154;13.812;2023-03-22T03:51:58;99130.81;;;10.22;82.24
39267;BME280;24967;51.154;13.812;2023-03-22T03:54:25;99124.34;;;10.24;82.66
39267;BME280;24967;51.154;13.812;2023-03-22T03:56:52;99130.41;;;10.35;82.04
39267;BME280;24967;51.154;13.812;2023-03-22T03:59:20;99129.59;;;10.34;82.01
39267;BME280;24967;51.154;13.812;2023-03-22T04:01:47;99130.91;;;10.30;82.54
39267;BME280;24967;51.154;13.812;2023-03-22T04:04:17;99130.72;;;10.31;81.94
39267;BME280;24967;51.154;13.812;2023-03-22T04:06:50;99137.34;;;10.27;81.96
39267;BME280;24967;51.154;13.812;2023-03-22T04:09:17;99128.22;;;10.04;82.32
39267;BME280;24967;51.154;13.812;2023-03-22T04:11:43;99127.03;;;9.98;83.15
39267;BME280;24967;51.154;13.812;2023-03-22T04:14:10;99131.25;;;10.09;82.43
39267;BME280;24967;51.154;13.812;2023-03-22T04:16:38;99128.03;;;9.97;82.84
39267;BME280;24967;51.154;13.812;2023-03-22T04:19:04;99135.28;;;9.87;83.02
39267;BME280;24967;51.154;13.812;2023-03-22T04:21:30;99133.91;;;9.83;83.69
39267;BME280;24967;51.154;13.812;2023-03-22T04:23:57;99135.91;;;9.81;83.79
39267;BME280;24967;51.154;13.812;2023-03-22T04:26:24;99140.47;;;9.97;82.83
39267;BME280;24967;51.154;13.812;2023-03-22T04:28:50;99128.50;;;9.67;83.39
39267;BME280;24967;51.154;13.812;2023-03-22T04:31:17;99118.41;;;9.96;82.57
39267;BME280;24967;51.154;13.812;2023-03-22T04:33:44;99132.25;;;10.08;81.70
39267;BME280;24967;51.154;13.812;2023-03-22T04:36:14;99131.31;;;10.25;80.73
39267;BME280;24967;51.154;13.812;2023-03-22T04:38:42;99127.47;;;10.12;80.72
39267;BME280;24967;51.154;13.812;2023-03-22T04:41:09;99130.47;;;9.91;81.28
39267;BME280;24967;51.154;13.812;2023-03-22T04:43:35;99129.34;;;9.93;81.96
39267;BME280;24967;51.154;13.812;2023-03-22T04:46:04;99122.44;;;9.82;82.20
39267;BME280;24967;51.154;13.812;2023-03-22T04:48:34;99130.28;;;9.84;82.57
39267;BME280;24967;51.154;13.812;2023-03-22T04:51:02;99125.41;;;9.79;82.54
39267;BME280;24967;51.154;13.812;2023-03-22T04:53:29;99111.00;;;9.82;82.65
39267;BME280;24967;51.154;13.812;2023-03-22T04:55:56;99122.19;;;9.68;82.38
39267;BME280;24967;51.154;13.812;2023-03-22T04:58:22;99125.59;;;9.78;82.52
39267;BME280;24967;51.154;13.812;2023-03-22T05:00:50;99120.66;;;9.65;82.63
39267;BME280;24967;51.154;13.812;2023-03-22T05:03:17;99129.16;;;9.95;81.71
39267;BME280;24967;51.154;13.812;2023-03-22T05:05:51;99123.75;;;9.78;81.90
39267;BME280;24967;51.154;13.812;2023-03-22T05:08:21;99120.22;;;9.96;81.25
39267;BME280;24967;51.154;13.812;2023-03-22T05:10:49;99122.88;;;9.96;80.94
39267;BME280;24967;51.154;13.812;2023-03-22T05:13:16;99125.34;;;9.71;81.40
39267;BME280;24967;51.154;13.812;2023-03-22T05:15:43;99116.09;;;9.75;81.21
39267;BME280;24967;51.154;13.812;2023-03-22T05:18:10;99119.38;;;9.69;81.48
39267;BME280;24967;51.154;13.812;2023-03-22T05:20:38;99119.34;;;9.87;81.53
39267;BME280;24967;51.154;13.812;2023-03-22T05:23:05;99122.25;;;10.02;80.57
39267;BME280;24967;51.154;13.812;2023-03-22T05:25:33;99118.41;;;9.96;81.17
39267;BME280;24967;51.154;13.812;2023-03-22T05:27:59;99114.59;;;9.99;80.48
39267;BME280;24967;51.154;13.812;2023-03-22T05:30:26;99125.56;;;10.04;80.48
39267;BME280;24967;51.154;13.812;2023-03-22T05:32:56;99124.91;;;10.02;80.43
39267;BME280;24967;51.154;13.812;2023-03-22T05:35:24;99125.88;;;10.01;80.27
39267;BME280;24967;51.154;13.812;2023-03-22T05:37:50;99120.22;;;9.96;80.71
39267;BME280;24967;51.154;13.812;2023-03-22T05:40:17;99122.56;;;9.99;80.87
39267;BME280;24967;51.154;13.812;2023-03-22T05:42:45;99122.25;;;10.02;81.03
39267;BME280;24967;51.154;13.812;2023-03-22T05:45:12;99126.88;;;10.00;81.38
39267;BME280;24967;51.154;13.812;2023-03-22T05:47:39;99125.75;;;10.02;81.45
39267;BME280;24967;51.154;13.812;2023-03-22T05:50:07;99119.47;;;10.12;81.73
39267;BME280;24967;51.154;13.812;2023-03-22T05:52:34;99122.25;;;10.28;81.23
39267;BME280;24967;51.154;13.812;2023-03-22T05:55:00;99113.81;;;10.32;80.96
39267;BME280;24967;51.154;13.812;2023-03-22T05:57:27;99124.13;;;10.36;81.00
39267;BME280;24967;51.154;13.812;2023-03-22T05:59:55;99121.66;;;10.42;81.04
39267;BME280;24967;51.154;13.812;2023-03-22T06:02:22;99123.03;;;10.54;80.74
39267;BME280;24967;51.154;13.812;2023-03-22T06:04:49;99113.53;;;10.52;80.90
39267;BME280;24967;51.154;13.812;2023-03-22T06:07:16;99112.25;;;10.56;81.10
39267;BME280;24967;51.154;13.812;2023-03-22T06:09:43;99108.41;;;10.50;81.69
39267;BME280;24967;51.154;13.812;2023-03-22T06:12:10;99097.81;;;10.67;80.91
39267;BME280;24967;51.154;13.812;2023-03-22T06:14:36;99098.66;;;10.67;81.41
39267;BME280;24967;51.154;13.812;2023-03-22T06:17:04;99119.44;;;10.72;81.11
39267;BME280;24967;51.154;13.812;2023-03-22T06:19:31;99119.25;;;10.73;81.13
39267;BME280;24967;51.154;13.812;2023-03-22T06:21:57;99103.31;;;10.73;80.79
39267;BME280;24967;51.154;13.812;2023-03-22T06:24:24;99103.00;;;10.68;81.07
39267;BME280;24967;51.154;13.812;2023-03-22T06:26:50;99102.78;;;10.53;81.32
39267;BME280;24967;51.154;13.812;2023-03-22T06:29:17;99101.31;;;10.67;81.42
39267;BME280;24967;51.154;13.812;2023-03-22T06:31:43;99097.50;;;10.70;81.42
39267;BME280;24967;51.154;13.812;2023-03-22T06:34:11;99095.38;;;10.90;80.11
39267;BME280;24967;51.154;13.812;2023-03-22T06:36:37;99101.66;;;10.72;81.51
39267;BME280;24967;51.154;13.812;2023-03-22T06:39:05;99108.00;;;10.88;80.79
39267;BME280;24967;51.154;13.812;2023-03-22T06:41:32;99110.69;;;10.96;80.33
39267;BME280;24967;51.154;13.812;2023-03-22T06:43:58;99108.22;;;11.11;79.55
39267;BME280;24967;51.154;13.812;2023-03-22T06:46:25;99111.16;;;10.91;80.78
39267;BME280;24967;51.154;13.812;2023-03-22T06:48:52;99114.50;;;10.93;79.17
39267;BME280;24967;51.154;13.812;2023-03-22T06:51:19;99110.53;;;11.06;79.10
39267;BME280;24967;51.154;13.812;2023-03-22T06:53:46;99103.25;;;11.08;79.77
39267;BME280;24967;51.154;13.812;2023-03-22T06:56:12;99113.69;;;11.01;80.07
39267;BME280;24967;51.154;13.812;2023-03-22T06:58:39;99113.19;;;11.06;79.04
39267;BME280;24967;51.154;13.812;2023-03-22T07:01:06;99105.72;;;11.17;79.61
39267;BME280;24967;51.154;13.812;2023-03-22T07:03:32;99108.56;;;11.32;79.69
39267;BME280;24967;51.154;13.812;2023-03-22T07:06:00;99110.56;;;11.14;78.63
39267;BME280;24967;51.154;13.812;2023-03-22T07:08:28;99114.22;;;11.21;79.37
39267;BME280;24967;51.154;13.812;2023-03-22T07:10:55;99107.22;;;11.53;78.48
39267;BME280;24967;51.154;13.812;2023-03-22T07:13:21;99119.38;;;11.72;77.01
39267;BME280;24967;51.154;13.812;2023-03-22T07:15:48;99121.53;;;11.76;76.96
39267;BME280;24967;51.154;13.812;2023-03-22T07:18:14;99108.06;;;11.69;76.72
39267;BME280;24967;51.154;13.812;2023-03-22T07:20:41;99116.88;;;11.70;76.47
39267;BME280;24967;51.154;13.812;2023-03-22T07:23:08;99109.69;;;11.79;76.56
39267;BME280;24967;51.154;13.812;2023-03-22T07:25:37;99111.06;;;11.75;78.25
39267;BME280;24967;51.154;13.812;2023-03-22T07:28:03;99106.25;;;11.86;76.47
39267;BME280;24967;51.154;13.812;2023-03-22T07:30:31;99101.53;;;11.97;76.02
39267;BME280;24967;51.154;13.812;2023-03-22T07:33:00;99103.22;;;11.81;76.54
39267;BME280;24967;51.154;13.812;2023-03-22T07:35:26;99104.56;;;11.85;75.98
39267;BME280;24967;51.154;13.812;2023-03-22T07:37:53;99103.72;;;11.85;77.16
39267;BME280;24967;51.154;13.812;2023-03-22T07:40:20;99105.69;;;12.07;75.66
39267;BME280;24967;51.154;13.812;2023-03-22T07:42:48;99101.41;;;11.98;76.30
39267;BME280;24967;51.154;13.812;2023-03-22T07:45:15;99096.97;;;12.22;74.87
39267;BME280;24967;51.154;13.812;2023-03-22T07:47:42;99111.31;;;12.21;75.11
39267;BME280;24967;51.154;13.812;2023-03-22T07:50:10;99100.84;;;12.11;75.34
39267;BME280;24967;51.154;13.812;2023-03-22T07:52:37;99098.69;;;12.14;75.26
39267;BME280;24967;51.154;13.812;2023-03-22T07:55:04;99101.34;;;12.14;75.91
39267;BME280;24967;51.154;13.812;2023-03-22T07:57:31;99099.84;;;12.12;75.22
39267;BME280;24967;51.154;13.812;2023-03-22T07:59:59;99101.34;;;12.14;74.87
39267;BME280;24967;51.154;13.812;2023-03-22T08:02:25;99099.34;;;12.17;75.29
39267;BME280;24967;51.154;13.812;2023-03-22T08:04:52;99089.75;;;12.38;74.52
39267;BME280;24967;51.154;13.812;2023-03-22T08:07:19;99098.22;;;12.42;74.28
39267;BME280;24967;51.154;13.812;2023-03-22T08:09:46;99097.16;;;12.59;74.96
39267;BME280;24967;51.154;13.812;2023-03-22T08:12:13;99106.16;;;12.90;75.02
39267;BME280;24967;51.154;13.812;2023-03-22T08:14:40;99111.50;;;12.90;73.94
39267;BME280;24967;51.154;13.812;2023-03-22T08:17:08;99105.53;;;13.11;72.04
39267;BME280;24967;51.154;13.812;2023-03-22T08:19:34;99104.63;;;13.26;71.90
39267;BME280;24967;51.154;13.812;2023-03-22T08:22:01;99113.91;;;13.07;69.87
39267;BME280;24967;51.154;13.812;2023-03-22T08:24:27;99121.47;;;13.27;70.94
39267;BME280;24967;51.154;13.812;2023-03-22T08:26:55;99113.91;;;13.54;70.63
39267;BME280;24967;51.154;13.812;2023-03-22T08:29:22;99113.00;;;13.61;69.69
39267;BME280;24967;51.154;13.812;2023-03-22T08:31:49;99111.81;;;13.64;70.03
39267;BME280;24967;51.154;13.812;2023-03-22T08:34:17;99111.03;;;13.55;68.93
39267;BME280;24967;51.154;13.812;2023-03-22T08:36:44;99105.47;;;13.65;68.17
39267;BME280;24967;51.154;13.812;2023-03-22T08:39:10;99101.19;;;13.93;68.54
39267;BME280;24967;51.154;13.812;2023-03-22T08:41:37;99094.44;;;13.97;69.22
39267;BME280;24967;51.154;13.812;2023-03-22T08:44:04;99098.22;;;13.88;68.93
39267;BME280;24967;51.154;13.812;2023-03-22T08:46:31;99084.03;;;13.88;67.18
39267;BME280;24967;51.154;13.812;2023-03-22T08:48:57;99098.59;;;13.85;67.85
39267;BME280;24967;51.154;13.812;2023-03-22T08:51:26;99089.31;;;13.96;67.63
39267;BME280;24967;51.154;13.812;2023-03-22T08:53:53;99092.34;;;13.93;67.72
39267;BME280;24967;51.154;13.812;2023-03-22T08:56:22;99101.44;;;13.84;67.30
39267;BME280;24967;51.154;13.812;2023-03-22T08:58:51;99107.28;;;14.17;67.16
39267;BME280;24967;51.154;13.812;2023-03-22T09:01:18;99101.00;;;13.95;64.72
39267;BME280;24967;51.154;13.812;2023-03-22T09:03:45;99094.00;;;14.09;65.00
39267;BME280;24967;51.154;13.812;2023-03-22T09:06:12;99093.34;;;14.07;64.78
39267;BME280;24967;51.154;13.812;2023-03-22T09:08:40;99088.66;;;13.94;64.27
39267;BME280;24967;51.154;13.812;2023-03-22T09:11:07;99084.06;;;14.17;63.69
39267;BME280;24967;51.154;13.812;2023-03-22T09:13:34;99088.75;;;14.15;64.35
39267;BME280;24967;51.154;13.812;2023-03-22T09:16:01;99093.91;;;14.02;63.57
39267;BME280;24967;51.154;13.812;2023-03-22T09:18:28;99086.44;;;13.97;64.18
39267;BME280;24967;51.154;13.812;2023-03-22T09:20:55;99083.13;;;13.95;63.48
39267;BME280;24967;51.154;13.812;2023-03-22T09:23:21;99083.66;;;13.91;63.43
39267;BME280;24967;51.154;13.812;2023-03-22T09:25:49;99081.22;;;14.04;64.21
39267;BME280;24967;51.154;13.812;2023-03-22T09:28:16;99068.19;;;14.31;64.40
39267;BME280;24967;51.154;13.812;2023-03-22T09:30:43;99064.88;;;14.29;63.13
39267;BME280;24967;51.154;13.812;2023-03-22T09:33:10;99057.22;;;14.40;62.89
39267;BME280;24967;51.154;13.812;2023-03-22T09:35:39;99056.84;;;14.43;61.67
39267;BME280;24967;51.154;13.812;2023-03-22T09:38:06;99053.59;;;14.63;62.55
39267;BME280;24967;51.154;13.812;2023-03-22T09:40:34;99054.34;;;14.93;60.87
39267;BME280;24967;51.154;13.812;2023-03-22T09:43:05;99058.09;;;14.99;60.60
39267;BME280;24967;51.154;13.812;2023-03-22T09:45:34;99053.06;;;15.10;62.30
39267;BME280;24967;51.154;13.812;2023-03-22T09:48:04;99054.59;;;14.98;59.89
39267;BME280;24967;51.154;13.812;2023-03-22T09:50:39;99050.06;;;15.20;59.33
39267;BME280;24967;51.154;13.812;2023-03-22T09:53:10;99046.97;;;15.45;59.98
39267;BME280;24967;51.154;13.812;2023-03-22T09:55:42;99036.78;;;15.33;58.82
39267;BME280;24967;51.154;13.812;2023-03-22T09:58:18;99044.31;;;15.73;59.66
39267;BME280;24967;51.154;13.812;2023-03-22T10:00:54;99038.75;;;16.09;59.28
39267;BME280;24967;51.154;13.812;2023-03-22T10:03:34;99040.56;;;15.95;57.15
39267;BME280;24967;51.154;13.812;2023-03-22T10:06:09;99037.06;;;15.95;57.29
39267;BME280;24967;51.154;13.812;2023-03-22T10:08:45;99029.75;;;16.23;57.41
39267;BME280;24967;51.154;13.812;2023-03-22T10:11:20;99026.03;;;16.24;56.78
39267;BME280;24967;51.154;13.812;2023-03-22T10:13:56;99021.88;;;16.15;56.20
39267;BME280;24967;51.154;13.812;2023-03-22T10:16:27;99019.78;;;16.52;55.74
39267;BME280;24967;51.154;13.812;2023-03-22T10:19:02;99019.00;;;16.71;53.69
39267;BME280;24967;51.154;13.812;2023-03-22T10:21:30;99025.75;;;16.54;54.25
39267;BME280;24967;51.154;13.812;2023-03-22T10:24:00;99000.38;;;16.57;53.97
39267;BME280;24967;51.154;13.812;2023-03-22T10:26:32;99000.78;;;16.60;53.52
39267;BME280;24967;51.154;13.812;2023-03-22T10:29:03;99008.03;;;16.66;53.76
39267;BME280;24967;51.154;13.812;2023-03-22T10:31:33;99000.44;;;16.15;53.44
39267;BME280;24967;51.154;13.812;2023-03-22T10:34:02;99001.72;;;16.19;53.97
39267;BME280;24967;51.154;13.812;2023-03-22T10:36:32;98997.59;;;16.30;54.49
39267;BME280;24967;51.154;13.812;2023-03-22T10:39:04;99003.44;;;16.40;53.58
39267;BME280;24967;51.154;13.812;2023-03-22T10:41:34;98991.44;;;16.36;54.24
39267;BME280;24967;51.154;13.812;2023-03-22T10:44:03;98991.25;;;16.38;54.45
39267;BME280;24967;51.154;13.812;2023-03-22T10:46:35;98991.25;;;16.38;54.27
39267;BME280;24967;51.154;13.812;2023-03-22T10:49:03;98983.13;;;16.24;53.95
39267;BME280;24967;51.154;13.812;2023-03-22T10:51:34;98983.03;;;16.46;54.10
39267;BME280;24967;51.154;13.812;2023-03-22T10:54:04;98970.63;;;16.38;53.38
39267;BME280;24967;51.154;13.812;2023-03-22T10:56:30;98979.38;;;16.12;54.02
39267;BME280;24967;51.154;13.812;2023-03-22T10:58:57;98987.25;;;16.20;54.13
39267;BME280;24967;51.154;13.812;2023-03-22T11:01:27;98979.97;;;16.56;54.58
39267;BME280;24967;51.154;13.812;2023-03-22T11:03:57;98970.94;;;16.77;54.13
39267;BME280;24967;51.154;13.812;2023-03-22T11:06:25;98971.56;;;17.18;54.39
39267;BME280;24967;51.154;13.812;2023-03-22T11:08:57;98975.91;;;17.33;53.02
39267;BME280;24967;51.154;13.812;2023-03-22T11:11:25;98975.25;;;17.57;53.69
39267;BME280;24967;51.154;13.812;2023-03-22T11:13:58;98957.88;;;17.60;51.78
39267;BME280;24967;51.154;13.812;2023-03-22T11:16:27;98949.16;;;17.84;52.31
39267;BME280;24967;51.154;13.812;2023-03-22T11:18:54;98945.31;;;18.19;51.29
39267;BME280;24967;51.154;13.812;2023-03-22T11:21:26;98947.19;;;18.12;50.34
39267;BME280;24967;51.154;13.812;2023-03-22T11:23:57;98942.03;;;18.17;50.77
39267;BME280;24967;51.154;13.812;2023-03-22T11:26:28;98938.81;;;18.33;51.15
39267;BME280;24967;51.154;13.812;2023-03-22T11:29:02;98931.50;;;18.47;49.84
39267;BME280;24967;51.154;13.812;2023-03-22T11:31:48;98934.50;;;18.64;50.80
39267;BME280;24967;51.154;13.812;2023-03-22T11:34:17;98920.19;;;18.70;49.86
39267;BME280;24967;51.154;13.812;2023-03-22T11:36:45;98920.41;;;18.30;49.54
39267;BME280;24967;51.154;13.812;2023-03-22T11:39:17;98914.25;;;18.54;49.38
39267;BME280;24967;51.154;13.812;2023-03-22T11:41:45;98903.09;;;18.19;48.37
39267;BME280;24967;51.154;13.812;2023-03-22T11:44:14;98911.41;;;18.49;48.74
39267;BME280;24967;51.154;13.812;2023-03-22T11:46:50;98904.34;;;18.17;48.75
39267;BME280;24967;51.154;13.812;2023-03-22T11:49:18;98897.09;;;18.56;49.04
39267;BME280;24967;51.154;13.812;2023-03-22T11:51:45;98887.78;;;18.83;48.60
39267;BME280;24967;51.154;13.812;2023-03-22T11:54:14;98888.91;;;18.69;46.59
39267;BME280;24967;51.154;13.812;2023-03-22T11:56:46;98888.41;;;18.53;47.08
39267;BME280;24967;51.154;13.812;2023-03-22T11:59:15;98883.44;;;18.50;47.87
39267;BME280;24967;51.154;13.812;2023-03-22T12:01:45;98886.63;;;18.41;47.60
39267;BME280;24967;51.154;13.812;2023-03-22T12:04:18;98877.34;;;18.37;46.01
39267;BME280;24967;51.154;13.812;2023-03-22T12:06:48;98873.44;;;18.64;47.62
39267;BME280;24967;51.154;13.812;2023-03-22T12:09:23;98876.06;;;18.46;46.00
39267;BME280;24967;51.154;13.812;2023-03-22T12:11:53;98875.72;;;18.29;46.36
39267;BME280;24967;51.154;13.812;2023-03-22T12:14:23;98873.44;;;18.33;47.93
39267;BME280;24967;51.154;13.812;2023-03-22T12:16:55;98872.00;;;18.62;46.41
39267;BME280;24967;51.154;13.812;2023-03-22T12:19:36;98860.72;;;18.46;46.39
39267;BME280;24967;51.154;13.812;2023-03-22T12:22:10;98860.97;;;18.70;46.80
39267;BME280;24967;51.154;13.812;2023-03-22T12:24:38;98852.34;;;18.54;45.74
39267;BME280;24967;51.154;13.812;2023-03-22T12:27:12;98858.09;;;18.33;46.78
39267;BME280;24967;51.154;13.812;2023-03-22T12:29:44;98854.84;;;18.24;48.09
39267;BME280;24967;51.154;13.812;2023-03-22T12:32:16;98843.75;;;18.46;47.21
39267;BME280;24967;51.154;13.812;2023-03-22T12:34:48;98845.84;;;18.69;46.85
39267;BME280;24967;51.154;13.812;2023-03-22T12:37:18;98851.19;;;18.75;47.51
39267;BME280;24967;51.154;13.812;2023-03-22T12:39:48;98833.56;;;18.80;46.42
39267;BME280;24967;51.154;13.812;2023-03-22T12:42:18;98836.56;;;18.90;46.75
39267;BME280;24967;51.154;13.812;2023-03-22T12:44:46;98844.88;;;18.88;45.55
39267;BME280;24967;51.154;13.812;2023-03-22T12:47:18;98837.97;;;18.74;46.34
39267;BME280;24967;51.154;13.812;2023-03-22T12:49:53;98839.34;;;18.83;46.28
39267;BME280;24967;51.154;13.812;2023-03-22T12:52:24;98831.69;;;18.80;46.23
39267;BME280;24967;51.154;13.812;2023-03-22T12:54:52;98828.31;;;18.85;46.43
39267;BME280;24967;51.154;13.812;2023-03-22T12:57:20;98835.69;;;18.96;46.28
39267;BME280;24967;51.154;13.812;2023-03-22T12:59:48;98825.22;;;19.06;44.81
39267;BME280;24967;51.154;13.812;2023-03-22T13:02:18;98820.09;;;18.80;45.17
39267;BME280;24967;51.154;13.812;2023-03-22T13:04:52;98829.94;;;18.92;45.25
39267;BME280;24967;51.154;13.812;2023-03-22T13:07:49;98822.03;;;18.66;45.57